sensor_id;sensor_type;location;lat;lon;timestamp;P1;durP1;ratioP1;P2;durP2;ratioP2
48403;SDS011;34202;52.536;6.042;2023-05-21T00:01:23;5.90;;;2.70;;
48403;SDS011;34202;52.536;6.042;2023-05-21T00:06:24;5.80;;;3.40;;
48403;SDS011;34202;52.536;6.042;2023-05-21T00:11:25;6.50;;;3.50;;
48403;SDS011;34202;52.536;6.042;2023-05-21T00:16:26;6.40;;;3.50;;
48403;SDS011;34202;52.536;6.042;2023-05-21T00:21:26;5.20;;;3.00;;
48403;SDS011;34202;52.536;6.042;2023-05-21T00:26:27;6.80;;;2.70;;
48403;SDS011;34202;52.536;6.042;2023-05-21T00:31:27;4.10;;;3.20;;
48403;SDS011;34202;52.536;6.042;2023-05-21T00:36:27;7.50;;;3.10;;
48403;SDS011;34202;52.536;6.042;2023-05-21T00:41:29;5.40;;;3.40;;
48403;SDS011;34202;52.536;6.042;2023-05-21T00:46:30;4.00;;;3.60;;
48403;SDS011;34202;52.536;6.042;2023-05-21T00:51:30;7.50;;;3.30;;
48403;SDS011;34202;52.536;6.042;2023-05-21T00:56:31;6.00;;;3.20;;
48403;SDS011;34202;52.536;6.042;2023-05-21T01:01:32;4.90;;;3.50;;
48403;SDS011;34202;52.536;6.042;2023-05-21T01:06:35;4.60;;;4.10;;
48403;SDS011;34202;52.536;6.042;2023-05-21T01:11:37;5.40;;;2.60;;
48403;SDS011;34202;52.536;6.042;2023-05-21T01:16:43;4.90;;;3.70;;
48403;SDS011;34202;52.536;6.042;2023-05-21T01:21:47;4.20;;;3.20;;
48403;SDS011;34202;52.536;6.042;2023-05-21T01:26:50;8.60;;;3.60;;
48403;SDS011;34202;52.536;6.042;2023-05-21T01:36:59;6.10;;;3.40;;
48403;SDS011;34202;52.536;6.042;2023-05-21T01:42:09;5.90;;;3.50;;
48403;SDS011;34202;52.536;6.042;2023-05-21T01:47:10;8.70;;;3.60;;
48403;SDS011;34202;52.536;6.042;2023-05-21T01:52:11;4.50;;;3.40;;
48403;SDS011;34202;52.536;6.042;2023-05-21T01:57:12;5.10;;;3.40;;
48403;SDS011;34202;52.536;6.042;2023-05-21T02:02:12;5.50;;;2.90;;
48403;SDS011;34202;52.536;6.042;2023-05-21T02:07:12;4.30;;;3.20;;
48403;SDS011;34202;52.536;6.042;2023-05-21T02:12:17;3.80;;;3.50;;
48403;SDS011;34202;52.536;6.042;2023-05-21T02:17:17;6.60;;;4.70;;
48403;SDS011;34202;52.536;6.042;2023-05-21T02:22:17;5.30;;;3.90;;
48403;SDS011;34202;52.536;6.042;2023-05-21T02:27:18;6.60;;;3.70;;
48403;SDS011;34202;52.536;6.042;2023-05-21T02:32:18;8.10;;;3.70;;
48403;SDS011;34202;52.536;6.042;2023-05-21T02:37:19;8.40;;;4.10;;
48403;SDS011;34202;52.536;6.042;2023-05-21T02:42:20;5.60;;;3.50;;
48403;SDS011;34202;52.536;6.042;2023-05-21T02:47:22;5.60;;;4.20;;
48403;SDS011;34202;52.536;6.042;2023-05-21T02:52:24;3.90;;;3.50;;
48403;SDS011;34202;52.536;6.042;2023-05-21T02:57:24;6.70;;;4.00;;
48403;SDS011;34202;52.536;6.042;2023-05-21T03:02:25;5.40;;;3.80;;
48403;SDS011;34202;52.536;6.042;2023-05-21T03:07:25;5.60;;;3.60;;
48403;SDS011;34202;52.536;6.042;2023-05-21T03:12:25;5.20;;;4.40;;
48403;SDS011;34202;52.536;6.042;2023-05-21T03:17:26;4.10;;;3.70;;
48403;SDS011;34202;52.536;6.042;2023-05-21T03:22:26;7.40;;;4.50;;
48403;SDS011;34202;52.536;6.042;2023-05-21T03:27:26;5.50;;;3.90;;
48403;SDS011;34202;52.536;6.042;2023-05-21T03:32:27;9.50;;;6.10;;
48403;SDS011;34202;52.536;6.042;2023-05-21T03:37:27;4.60;;;3.70;;
48403;SDS011;34202;52.536;6.042;2023-05-21T03:42:28;9.00;;;5.60;;
48403;SDS011;34202;52.536;6.042;2023-05-21T03:47:28;7.10;;;4.80;;
48403;SDS011;34202;52.536;6.042;2023-05-21T03:52:28;12.20;;;5.00;;
48403;SDS011;34202;52.536;6.042;2023-05-21T03:57:29;5.80;;;4.50;;
48403;SDS011;34202;52.536;6.042;2023-05-21T04:02:30;8.10;;;5.60;;
48403;SDS011;34202;52.536;6.042;2023-05-21T04:07:31;9.80;;;4.70;;
48403;SDS011;34202;52.536;6.042;2023-05-21T04:12:31;5.40;;;4.20;;
48403;SDS011;34202;52.536;6.042;2023-05-21T04:17:31;6.60;;;4.70;;
48403;SDS011;34202;52.536;6.042;2023-05-21T04:22:33;6.00;;;4.50;;
48403;SDS011;34202;52.536;6.042;2023-05-21T04:27:35;10.20;;;5.40;;
48403;SDS011;34202;52.536;6.042;2023-05-21T04:32:36;10.80;;;4.90;;
48403;SDS011;34202;52.536;6.042;2023-05-21T04:37:37;7.30;;;5.70;;
48403;SDS011;34202;52.536;6.042;2023-05-21T04:42:41;4.70;;;4.20;;
48403;SDS011;34202;52.536;6.042;2023-05-21T04:47:41;7.60;;;4.80;;
48403;SDS011;34202;52.536;6.042;2023-05-21T04:52:42;8.90;;;4.60;;
48403;SDS011;34202;52.536;6.042;2023-05-21T04:57:44;7.60;;;6.10;;
48403;SDS011;34202;52.536;6.042;2023-05-21T05:02:45;8.30;;;5.00;;
48403;SDS011;34202;52.536;6.042;2023-05-21T05:07:45;12.10;;;6.90;;
48403;SDS011;34202;52.536;6.042;2023-05-21T05:12:47;9.60;;;5.20;;
48403;SDS011;34202;52.536;6.042;2023-05-21T05:17:47;6.20;;;4.60;;
48403;SDS011;34202;52.536;6.042;2023-05-21T05:22:49;9.60;;;6.10;;
48403;SDS011;34202;52.536;6.042;2023-05-21T05:27:50;7.30;;;5.70;;
48403;SDS011;34202;52.536;6.042;2023-05-21T05:32:50;8.90;;;5.00;;
48403;SDS011;34202;52.536;6.042;2023-05-21T05:37:50;6.70;;;4.80;;
48403;SDS011;34202;52.536;6.042;2023-05-21T05:42:51;11.00;;;6.20;;
48403;SDS011;34202;52.536;6.042;2023-05-21T05:47:51;7.80;;;5.00;;
48403;SDS011;34202;52.536;6.042;2023-05-21T05:52:52;7.80;;;5.50;;
48403;SDS011;34202;52.536;6.042;2023-05-21T05:57:52;7.20;;;4.80;;
48403;SDS011;34202;52.536;6.042;2023-05-21T06:02:52;7.90;;;5.10;;
48403;SDS011;34202;52.536;6.042;2023-05-21T06:07:53;8.40;;;6.40;;
48403;SDS011;34202;52.536;6.042;2023-05-21T06:12:53;8.30;;;5.70;;
48403;SDS011;34202;52.536;6.042;2023-05-21T06:17:54;8.10;;;5.00;;
48403;SDS011;34202;52.536;6.042;2023-05-21T06:22:54;10.20;;;6.40;;
48403;SDS011;34202;52.536;6.042;2023-05-21T06:27:54;7.50;;;5.40;;
48403;SDS011;34202;52.536;6.042;2023-05-21T06:32:55;8.90;;;5.80;;
48403;SDS011;34202;52.536;6.042;2023-05-21T06:37:56;7.20;;;5.80;;
48403;SDS011;34202;52.536;6.042;2023-05-21T06:42:56;10.90;;;5.40;;
48403;SDS011;34202;52.536;6.042;2023-05-21T06:47:58;10.00;;;5.90;;
48403;SDS011;34202;52.536;6.042;2023-05-21T06:52:59;7.50;;;4.90;;
48403;SDS011;34202;52.536;6.042;2023-05-21T06:58:00;8.90;;;5.70;;
48403;SDS011;34202;52.536;6.042;2023-05-21T07:03:01;7.70;;;4.60;;
48403;SDS011;34202;52.536;6.042;2023-05-21T07:08:01;7.70;;;4.30;;
48403;SDS011;34202;52.536;6.042;2023-05-21T07:13:01;8.30;;;5.10;;
48403;SDS011;34202;52.536;6.042;2023-05-21T07:18:02;9.30;;;5.10;;
48403;SDS011;34202;52.536;6.042;2023-05-21T07:23:03;7.90;;;5.00;;
48403;SDS011;34202;52.536;6.042;2023-05-21T07:28:03;7.80;;;4.90;;
48403;SDS011;34202;52.536;6.042;2023-05-21T07:33:04;5.90;;;4.40;;
48403;SDS011;34202;52.536;6.042;2023-05-21T07:38:05;11.40;;;5.10;;
48403;SDS011;34202;52.536;6.042;2023-05-21T07:43:05;7.10;;;4.90;;
48403;SDS011;34202;52.536;6.042;2023-05-21T07:48:05;10.50;;;5.30;;
48403;SDS011;34202;52.536;6.042;2023-05-21T07:53:06;6.30;;;4.60;;
48403;SDS011;34202;52.536;6.042;2023-05-21T07:58:06;6.30;;;4.80;;
48403;SDS011;34202;52.536;6.042;2023-05-21T08:03:06;6.00;;;4.80;;
48403;SDS011;34202;52.536;6.042;2023-05-21T08:08:07;6.40;;;4.60;;
48403;SDS011;34202;52.536;6.042;2023-05-21T08:13:07;7.50;;;4.70;;
48403;SDS011;34202;52.536;6.042;2023-05-21T08:18:08;5.30;;;4.40;;
48403;SDS011;34202;52.536;6.042;2023-05-21T08:23:08;7.20;;;4.50;;
48403;SDS011;34202;52.536;6.042;2023-05-21T08:28:09;6.30;;;4.70;;
48403;SDS011;34202;52.536;6.042;2023-05-21T08:33:09;6.20;;;4.40;;
48403;SDS011;34202;52.536;6.042;2023-05-21T08:38:10;6.50;;;4.70;;
48403;SDS011;34202;52.536;6.042;2023-05-21T08:43:10;7.60;;;5.20;;
48403;SDS011;34202;52.536;6.042;2023-05-21T08:48:13;5.90;;;4.10;;
48403;SDS011;34202;52.536;6.042;2023-05-21T08:53:15;6.70;;;4.30;;
48403;SDS011;34202;52.536;6.042;2023-05-21T08:58:16;7.40;;;4.30;;
48403;SDS011;34202;52.536;6.042;2023-05-21T09:03:17;7.20;;;4.50;;
48403;SDS011;34202;52.536;6.042;2023-05-21T09:08:23;6.40;;;4.40;;
48403;SDS011;34202;52.536;6.042;2023-05-21T09:13:28;5.60;;;4.10;;
48403;SDS011;34202;52.536;6.042;2023-05-21T09:18:32;6.30;;;4.90;;
48403;SDS011;34202;52.536;6.042;2023-05-21T09:23:32;8.90;;;4.90;;
48403;SDS011;34202;52.536;6.042;2023-05-21T09:28:32;8.20;;;4.80;;
48403;SDS011;34202;52.536;6.042;2023-05-21T09:33:35;5.50;;;4.20;;
48403;SDS011;34202;52.536;6.042;2023-05-21T09:38:46;5.10;;;4.40;;
48403;SDS011;34202;52.536;6.042;2023-05-21T09:43:47;9.90;;;4.70;;
48403;SDS011;34202;52.536;6.042;2023-05-21T09:48:48;5.40;;;4.10;;
48403;SDS011;34202;52.536;6.042;2023-05-21T09:53:49;5.40;;;3.70;;
48403;SDS011;34202;52.536;6.042;2023-05-21T09:58:57;9.20;;;5.60;;
48403;SDS011;34202;52.536;6.042;2023-05-21T10:04:01;7.00;;;4.70;;
48403;SDS011;34202;52.536;6.042;2023-05-21T10:09:05;7.10;;;4.70;;
48403;SDS011;34202;52.536;6.042;2023-05-21T10:14:14;6.50;;;4.60;;
48403;SDS011;34202;52.536;6.042;2023-05-21T10:19:18;10.10;;;5.00;;
48403;SDS011;34202;52.536;6.042;2023-05-21T10:24:19;9.20;;;5.50;;
48403;SDS011;34202;52.536;6.042;2023-05-21T10:29:21;8.20;;;4.10;;
48403;SDS011;34202;52.536;6.042;2023-05-21T10:34:22;7.60;;;5.10;;
48403;SDS011;34202;52.536;6.042;2023-05-21T10:39:22;7.90;;;5.50;;
48403;SDS011;34202;52.536;6.042;2023-05-21T10:44:38;6.90;;;5.20;;
48403;SDS011;34202;52.536;6.042;2023-05-21T11:00:02;8.20;;;5.50;;
48403;SDS011;34202;52.536;6.042;2023-05-21T11:05:05;7.60;;;6.90;;
48403;SDS011;34202;52.536;6.042;2023-05-21T11:15:29;8.60;;;7.40;;
48403;SDS011;34202;52.536;6.042;2023-05-21T11:20:32;10.40;;;8.10;;
48403;SDS011;34202;52.536;6.042;2023-05-21T11:25:33;13.20;;;9.40;;
48403;SDS011;34202;52.536;6.042;2023-05-21T11:30:33;14.60;;;7.40;;
48403;SDS011;34202;52.536;6.042;2023-05-21T11:35:54;10.90;;;9.00;;
48403;SDS011;34202;52.536;6.042;2023-05-21T11:41:00;10.30;;;9.00;;
48403;SDS011;34202;52.536;6.042;2023-05-21T11:46:02;10.50;;;8.30;;
48403;SDS011;34202;52.536;6.042;2023-05-21T11:51:03;10.10;;;8.40;;
48403;SDS011;34202;52.536;6.042;2023-05-21T11:56:04;14.00;;;9.30;;
48403;SDS011;34202;52.536;6.042;2023-05-21T12:01:08;16.70;;;9.40;;
48403;SDS011;34202;52.536;6.042;2023-05-21T12:06:25;10.50;;;8.60;;
48403;SDS011;34202;52.536;6.042;2023-05-21T12:11:25;11.70;;;7.80;;
48403;SDS011;34202;52.536;6.042;2023-05-21T12:16:26;14.80;;;8.70;;
48403;SDS011;34202;52.536;6.042;2023-05-21T12:21:27;13.50;;;8.70;;
48403;SDS011;34202;52.536;6.042;2023-05-21T12:26:29;12.50;;;8.80;;
48403;SDS011;34202;52.536;6.042;2023-05-21T12:31:32;9.70;;;8.30;;
48403;SDS011;34202;52.536;6.042;2023-05-21T12:36:32;10.60;;;8.30;;
48403;SDS011;34202;52.536;6.042;2023-05-21T12:41:33;10.90;;;8.10;;
48403;SDS011;34202;52.536;6.042;2023-05-21T12:46:34;9.20;;;8.20;;
48403;SDS011;34202;52.536;6.042;2023-05-21T12:51:38;10.10;;;9.00;;
48403;SDS011;34202;52.536;6.042;2023-05-21T12:56:45;9.90;;;8.80;;
48403;SDS011;34202;52.536;6.042;2023-05-21T13:01:46;8.70;;;7.80;;
48403;SDS011;34202;52.536;6.042;2023-05-21T13:06:47;9.50;;;7.30;;
48403;SDS011;34202;52.536;6.042;2023-05-21T13:11:48;10.90;;;8.20;;
48403;SDS011;34202;52.536;6.042;2023-05-21T13:16:48;11.50;;;7.10;;
48403;SDS011;34202;52.536;6.042;2023-05-21T13:21:48;10.60;;;8.10;;
48403;SDS011;34202;52.536;6.042;2023-05-21T13:26:49;11.40;;;8.80;;
48403;SDS011;34202;52.536;6.042;2023-05-21T13:31:49;9.10;;;7.20;;
48403;SDS011;34202;52.536;6.042;2023-05-21T13:36:49;9.00;;;8.10;;
48403;SDS011;34202;52.536;6.042;2023-05-21T13:41:50;11.40;;;8.20;;
48403;SDS011;34202;52.536;6.042;2023-05-21T13:46:50;13.90;;;7.30;;
48403;SDS011;34202;52.536;6.042;2023-05-21T13:51:51;9.90;;;7.60;;
48403;SDS011;34202;52.536;6.042;2023-05-21T13:56:51;10.00;;;8.90;;
48403;SDS011;34202;52.536;6.042;2023-05-21T14:01:52;11.20;;;9.40;;
48403;SDS011;34202;52.536;6.042;2023-05-21T14:06:52;12.80;;;8.90;;
48403;SDS011;34202;52.536;6.042;2023-05-21T14:11:53;9.80;;;8.80;;
48403;SDS011;34202;52.536;6.042;2023-05-21T14:16:55;10.50;;;8.90;;
48403;SDS011;34202;52.536;6.042;2023-05-21T14:21:55;15.00;;;9.10;;
48403;SDS011;34202;52.536;6.042;2023-05-21T14:26:56;13.10;;;9.90;;
48403;SDS011;34202;52.536;6.042;2023-05-21T14:31:57;10.00;;;8.20;;
48403;SDS011;34202;52.536;6.042;2023-05-21T14:36:57;15.30;;;10.40;;
48403;SDS011;34202;52.536;6.042;2023-05-21T14:41:58;12.70;;;9.80;;
48403;SDS011;34202;52.536;6.042;2023-05-21T14:46:58;13.00;;;10.30;;
48403;SDS011;34202;52.536;6.042;2023-05-21T14:51:58;13.30;;;9.70;;
48403;SDS011;34202;52.536;6.042;2023-05-21T14:56:59;11.70;;;9.60;;
48403;SDS011;34202;52.536;6.042;2023-05-21T15:01:59;19.40;;;12.30;;
48403;SDS011;34202;52.536;6.042;2023-05-21T15:07:00;13.30;;;11.50;;
48403;SDS011;34202;52.536;6.042;2023-05-21T15:12:00;13.80;;;11.60;;
48403;SDS011;34202;52.536;6.042;2023-05-21T15:17:01;15.00;;;10.30;;
48403;SDS011;34202;52.536;6.042;2023-05-21T15:22:02;13.80;;;12.00;;
48403;SDS011;34202;52.536;6.042;2023-05-21T15:27:02;12.90;;;10.60;;
48403;SDS011;34202;52.536;6.042;2023-05-21T15:32:03;11.90;;;9.90;;
48403;SDS011;34202;52.536;6.042;2023-05-21T15:37:04;14.60;;;11.20;;
48403;SDS011;34202;52.536;6.042;2023-05-21T15:42:05;16.30;;;12.40;;
48403;SDS011;34202;52.536;6.042;2023-05-21T15:47:05;15.00;;;11.60;;
48403;SDS011;34202;52.536;6.042;2023-05-21T15:52:06;14.90;;;11.60;;
48403;SDS011;34202;52.536;6.042;2023-05-21T15:57:07;15.20;;;13.20;;
48403;SDS011;34202;52.536;6.042;2023-05-21T16:02:07;12.20;;;10.90;;
48403;SDS011;34202;52.536;6.042;2023-05-21T16:07:08;14.50;;;11.30;;
48403;SDS011;34202;52.536;6.042;2023-05-21T16:12:08;12.90;;;11.60;;
48403;SDS011;34202;52.536;6.042;2023-05-21T16:17:09;19.30;;;12.70;;
48403;SDS011;34202;52.536;6.042;2023-05-21T16:22:10;16.90;;;12.20;;
48403;SDS011;34202;52.536;6.042;2023-05-21T16:27:10;13.30;;;11.90;;
48403;SDS011;34202;52.536;6.042;2023-05-21T16:32:10;17.00;;;13.40;;
48403;SDS011;34202;52.536;6.042;2023-05-21T16:37:12;12.30;;;11.00;;
48403;SDS011;34202;52.536;6.042;2023-05-21T16:42:13;14.80;;;13.30;;
48403;SDS011;34202;52.536;6.042;2023-05-21T16:47:13;15.90;;;13.60;;
48403;SDS011;34202;52.536;6.042;2023-05-21T16:52:14;17.70;;;13.20;;
48403;SDS011;34202;52.536;6.042;2023-05-21T16:57:14;19.00;;;13.30;;
48403;SDS011;34202;52.536;6.042;2023-05-21T17:02:15;15.80;;;11.60;;
48403;SDS011;34202;52.536;6.042;2023-05-21T17:07:15;17.70;;;13.60;;
48403;SDS011;34202;52.536;6.042;2023-05-21T17:12:16;16.80;;;12.30;;
48403;SDS011;34202;52.536;6.042;2023-05-21T17:17:17;11.50;;;10.30;;
48403;SDS011;34202;52.536;6.042;2023-05-21T17:22:17;14.60;;;11.00;;
48403;SDS011;34202;52.536;6.042;2023-05-21T17:27:18;11.80;;;10.50;;
48403;SDS011;34202;52.536;6.042;2023-05-21T17:32:18;13.20;;;10.60;;
48403;SDS011;34202;52.536;6.042;2023-05-21T17:37:19;14.70;;;11.60;;
48403;SDS011;34202;52.536;6.042;2023-05-21T17:42:20;15.00;;;11.90;;
48403;SDS011;34202;52.536;6.042;2023-05-21T17:47:20;15.50;;;10.60;;
48403;SDS011;34202;52.536;6.042;2023-05-21T17:52:21;14.20;;;11.00;;
48403;SDS011;34202;52.536;6.042;2023-05-21T17:57:21;13.00;;;11.70;;
48403;SDS011;34202;52.536;6.042;2023-05-21T18:02:21;12.70;;;11.10;;
48403;SDS011;34202;52.536;6.042;2023-05-21T18:07:22;14.70;;;11.90;;
48403;SDS011;34202;52.536;6.042;2023-05-21T18:12:22;17.10;;;12.30;;
48403;SDS011;34202;52.536;6.042;2023-05-21T18:17:23;22.80;;;12.50;;
48403;SDS011;34202;52.536;6.042;2023-05-21T18:22:23;18.90;;;11.00;;
48403;SDS011;34202;52.536;6.042;2023-05-21T18:27:24;15.40;;;12.10;;
48403;SDS011;34202;52.536;6.042;2023-05-21T18:32:24;16.80;;;13.40;;
48403;SDS011;34202;52.536;6.042;2023-05-21T18:37:24;15.70;;;14.00;;
48403;SDS011;34202;52.536;6.042;2023-05-21T18:42:26;23.10;;;15.20;;
48403;SDS011;34202;52.536;6.042;2023-05-21T18:47:27;19.50;;;14.70;;
48403;SDS011;34202;52.536;6.042;2023-05-21T18:52:27;20.50;;;15.70;;
48403;SDS011;34202;52.536;6.042;2023-05-21T18:57:27;16.90;;;15.10;;
48403;SDS011;34202;52.536;6.042;2023-05-21T19:02:28;18.20;;;14.70;;
48403;SDS011;34202;52.536;6.042;2023-05-21T19:07:29;20.30;;;17.40;;
48403;SDS011;34202;52.536;6.042;2023-05-21T19:12:29;18.10;;;15.40;;
48403;SDS011;34202;52.536;6.042;2023-05-21T19:17:30;21.00;;;17.20;;
48403;SDS011;34202;52.536;6.042;2023-05-21T19:22:32;18.00;;;15.80;;
48403;SDS011;34202;52.536;6.042;2023-05-21T19:27:35;23.60;;;15.20;;
48403;SDS011;34202;52.536;6.042;2023-05-21T19:32:36;28.40;;;17.30;;
48403;SDS011;34202;52.536;6.042;2023-05-21T19:37:36;18.80;;;16.40;;
48403;SDS011;34202;52.536;6.042;2023-05-21T19:42:37;23.80;;;17.70;;
48403;SDS011;34202;52.536;6.042;2023-05-21T19:47:37;23.80;;;16.80;;
48403;SDS011;34202;52.536;6.042;2023-05-21T19:52:39;22.30;;;19.30;;
48403;SDS011;34202;52.536;6.042;2023-05-21T19:57:40;25.60;;;19.50;;
48403;SDS011;34202;52.536;6.042;2023-05-21T20:02:40;21.70;;;19.30;;
48403;SDS011;34202;52.536;6.042;2023-05-21T20:07:41;22.30;;;19.40;;
48403;SDS011;34202;52.536;6.042;2023-05-21T20:12:42;20.90;;;18.70;;
48403;SDS011;34202;52.536;6.042;2023-05-21T20:17:43;20.50;;;16.60;;
48403;SDS011;34202;52.536;6.042;2023-05-21T20:22:43;19.10;;;16.50;;
48403;SDS011;34202;52.536;6.042;2023-05-21T20:27:45;25.80;;;18.90;;
48403;SDS011;34202;52.536;6.042;2023-05-21T20:32:46;26.90;;;18.40;;
48403;SDS011;34202;52.536;6.042;2023-05-21T20:37:46;21.60;;;18.70;;
48403;SDS011;34202;52.536;6.042;2023-05-21T20:42:47;23.00;;;17.20;;
48403;SDS011;34202;52.536;6.042;2023-05-21T20:47:49;23.20;;;19.50;;
48403;SDS011;34202;52.536;6.042;2023-05-21T20:52:49;23.60;;;19.10;;
48403;SDS011;34202;52.536;6.042;2023-05-21T20:57:51;24.30;;;19.50;;
48403;SDS011;34202;52.536;6.042;2023-05-21T21:02:51;23.80;;;19.20;;
48403;SDS011;34202;52.536;6.042;2023-05-21T21:07:51;24.60;;;19.30;;
48403;SDS011;34202;52.536;6.042;2023-05-21T21:12:53;23.60;;;20.30;;
48403;SDS011;34202;52.536;6.042;2023-05-21T21:17:53;23.90;;;19.40;;
48403;SDS011;34202;52.536;6.042;2023-05-21T21:22:53;26.00;;;20.50;;
48403;SDS011;34202;52.536;6.042;2023-05-21T21:27:54;20.60;;;17.50;;
48403;SDS011;34202;52.536;6.042;2023-05-21T21:32:55;22.40;;;18.30;;
48403;SDS011;34202;52.536;6.042;2023-05-21T21:37:55;19.10;;;15.80;;
48403;SDS011;34202;52.536;6.042;2023-05-21T21:42:56;23.30;;;15.90;;
48403;SDS011;34202;52.536;6.042;2023-05-21T21:47:57;20.80;;;17.10;;
48403;SDS011;34202;52.536;6.042;2023-05-21T21:52:57;21.10;;;16.70;;
48403;SDS011;34202;52.536;6.042;2023-05-21T21:57:58;20.50;;;17.90;;
48403;SDS011;34202;52.536;6.042;2023-05-21T22:02:59;24.70;;;19.40;;
48403;SDS011;34202;52.536;6.042;2023-05-21T22:08:00;23.70;;;18.60;;
48403;SDS011;34202;52.536;6.042;2023-05-21T22:13:01;26.10;;;21.20;;
48403;SDS011;34202;52.536;6.042;2023-05-21T22:18:01;23.40;;;19.80;;
48403;SDS011;34202;52.536;6.042;2023-05-21T22:23:02;25.20;;;19.90;;
48403;SDS011;34202;52.536;6.042;2023-05-21T22:28:03;22.80;;;19.80;;
48403;SDS011;34202;52.536;6.042;2023-05-21T22:33:04;25.30;;;21.10;;
48403;SDS011;34202;52.536;6.042;2023-05-21T22:38:04;28.70;;;20.60;;
48403;SDS011;34202;52.536;6.042;2023-05-21T22:43:05;25.70;;;19.80;;
48403;SDS011;34202;52.536;6.042;2023-05-21T22:48:05;27.50;;;20.10;;
48403;SDS011;34202;52.536;6.042;2023-05-21T22:53:06;26.00;;;18.60;;
48403;SDS011;34202;52.536;6.042;2023-05-21T22:58:06;29.40;;;19.40;;
48403;SDS011;34202;52.536;6.042;2023-05-21T23:03:06;17.10;;;13.90;;
48403;SDS011;34202;52.536;6.042;2023-05-21T23:08:07;17.30;;;12.60;;
48403;SDS011;34202;52.536;6.042;2023-05-21T23:13:07;16.40;;;11.10;;
48403;SDS011;34202;52.536;6.042;2023-05-21T23:18:08;15.10;;;12.70;;
48403;SDS011;34202;52.536;6.042;2023-05-21T23:23:09;16.80;;;14.90;;
48403;SDS011;34202;52.536;6.042;2023-05-21T23:28:10;18.40;;;16.50;;
48403;SDS011;34202;52.536;6.042;2023-05-21T23:33:10;23.70;;;19.60;;
48403;SDS011;34202;52.536;6.042;2023-05-21T23:38:10;21.60;;;19.50;;
48403;SDS011;34202;52.536;6.042;2023-05-21T23:43:11;24.40;;;21.90;;
48403;SDS011;34202;52.536;6.042;2023-05-21T23:48:11;25.00;;;21.40;;
48403;SDS011;34202;52.536;6.042;2023-05-21T23:53:11;25.90;;;23.10;;
48403;SDS011;34202;52.536;6.042;2023-05-21T23:58:12;24.80;;;19.70;;
